createdAt,value
2018-08-24T00:00:35.011Z,73.87
2018-08-24T00:01:34.970Z,72.97
2018-08-24T00:02:35.185Z,72.91
2018-08-24T00:03:34.950Z,73.22
2018-08-24T00:04:34.997Z,72.77
2018-08-24T00:05:35.048Z,73.39
2018-08-24T00:06:34.972Z,73.18
2018-08-24T00:07:34.976Z,74.69
2018-08-24T00:08:35.245Z,73.64
2018-08-24T00:09:35.063Z,73.84
2018-08-24T00:10:35.084Z,74.04
2018-08-24T00:11:35.060Z,73.67
2018-08-24T00:12:34.960Z,73.65
2018-08-24T00:13:34.974Z,73.26
2018-08-24T00:14:34.988Z,74.51
2018-08-24T00:15:35.109Z,74.91
2018-08-24T00:16:35.039Z,74.18
2018-08-24T00:17:34.993Z,75.02
2018-08-24T00:18:34.970Z,75.08
2018-08-24T00:19:34.969Z,74.6
2018-08-24T00:20:35.005Z,74.75
2018-08-24T00:21:35.198Z,74.74
2018-08-24T00:22:35.051Z,74.97
2018-08-24T00:23:35.151Z,74.12
2018-08-24T00:24:34.968Z,75.03
2018-08-24T00:25:34.992Z,75.18
2018-08-24T00:26:34.982Z,74.93
2018-08-24T00:27:34.964Z,75.54
2018-08-24T00:28:35.354Z,75.12
2018-08-24T00:29:34.975Z,75.5
2018-08-24T00:30:35.067Z,75.91
2018-08-24T00:31:35.251Z,75.33
2018-08-24T00:32:35.094Z,74.76
2018-08-24T00:33:35.059Z,74.95
2018-08-24T00:34:34.985Z,75.33
2018-08-24T00:35:34.999Z,74.69
2018-08-24T00:36:35.187Z,74.53
2018-08-24T00:37:35.118Z,74.88
2018-08-24T00:38:35.012Z,74.62
2018-08-24T00:39:35.089Z,75.01
2018-08-24T00:40:35.191Z,74.2
2018-08-24T00:41:36.856Z,75.35
2018-08-24T00:42:35.073Z,74.64
2018-08-24T00:43:35.004Z,74.68
2018-08-24T00:44:34.992Z,74.44
2018-08-24T00:45:34.989Z,73.93
2018-08-24T00:46:35.264Z,74.66
2018-08-24T00:47:35.094Z,73.9
2018-08-24T00:48:35.535Z,73.82
2018-08-24T00:49:35.034Z,73.52
2018-08-24T00:50:35.172Z,75.4
2018-08-24T00:51:35.175Z,74.2
2018-08-24T00:52:35.032Z,74.22
2018-08-24T00:53:35.117Z,75.42
2018-08-24T00:54:35.127Z,74.51
2018-08-24T00:55:35.120Z,74.27
2018-08-24T00:56:35.024Z,74.22
2018-08-24T00:57:35.042Z,74.2
2018-08-24T00:58:35.189Z,73.67
2018-08-24T00:59:35.028Z,73.9
2018-08-24T01:00:35.237Z,73.73
2018-08-24T01:01:35.036Z,73.77
2018-08-24T01:02:35.079Z,73.58
2018-08-24T01:03:35.040Z,74.01
2018-08-24T01:04:35.137Z,73.4
2018-08-24T01:05:35.157Z,74.06
2018-08-24T01:06:35.048Z,74.63
2018-08-24T01:07:35.083Z,74.19
2018-08-24T01:08:35.310Z,74.1
2018-08-24T01:09:35.250Z,74.56
2018-08-24T01:10:35.075Z,73.9
2018-08-24T01:11:35.337Z,74.73
2018-08-24T01:12:35.074Z,74.05
2018-08-24T01:13:35.199Z,74.21
2018-08-24T01:14:35.060Z,74.5
2018-08-24T01:15:35.164Z,74.68
2018-08-24T01:16:35.200Z,74.69
2018-08-24T01:17:35.062Z,74.37
2018-08-24T01:18:35.040Z,75.5
2018-08-24T01:19:35.084Z,74.55
2018-08-24T01:20:35.081Z,74.47
2018-08-24T01:21:35.086Z,75.06
2018-08-24T01:22:35.061Z,74.92
2018-08-24T01:23:35.090Z,75.28
2018-08-24T01:24:35.056Z,74.63
2018-08-24T01:25:35.064Z,74.84
2018-08-24T01:26:35.088Z,74.39
2018-08-24T01:27:35.041Z,74.75
2018-08-24T01:28:35.043Z,74.15
2018-08-24T01:29:35.147Z,74.61
2018-08-24T01:30:35.059Z,74.89
2018-08-24T01:31:35.090Z,75.05
2018-08-24T01:32:35.068Z,75.38
2018-08-24T01:33:35.092Z,75.65
2018-08-24T01:34:35.062Z,75.23
2018-08-24T01:35:35.086Z,74.98
2018-08-24T01:36:35.365Z,75.09
2018-08-24T01:37:35.082Z,76.27
2018-08-24T01:38:35.093Z,75.5
2018-08-24T01:39:35.048Z,76.16
2018-08-24T01:40:35.205Z,75.77
2018-08-24T01:41:35.071Z,75.52
2018-08-24T01:42:35.062Z,75.38
2018-08-24T01:43:35.095Z,74.85
2018-08-24T01:44:35.562Z,75.81
2018-08-24T01:45:35.257Z,75.47
2018-08-24T01:46:35.089Z,75.96
2018-08-24T01:47:35.156Z,75.36
2018-08-24T01:48:35.186Z,76.04
2018-08-24T01:49:35.077Z,75.88
2018-08-24T01:50:35.183Z,75.34
2018-08-24T01:51:35.317Z,75.71
2018-08-24T01:52:35.217Z,75.3
2018-08-24T01:53:35.099Z,75.63
2018-08-24T01:54:35.142Z,77.11
2018-08-24T01:55:35.243Z,77.17
2018-08-24T01:56:35.255Z,76.47
2018-08-24T01:57:35.106Z,75.87
2018-08-24T01:58:35.137Z,76.24
2018-08-24T01:59:35.128Z,76.02
2018-08-24T02:00:35.191Z,76.38
2018-08-24T02:01:35.122Z,76.37
2018-08-24T02:02:35.172Z,75.4
2018-08-24T02:03:35.113Z,76.36
2018-08-24T02:04:35.505Z,75.61
2018-08-24T02:05:35.160Z,75.89
2018-08-24T02:06:35.144Z,75.68
2018-08-24T02:07:35.119Z,76.16
2018-08-24T02:08:35.269Z,76.7
2018-08-24T02:09:35.225Z,75.65
2018-08-24T02:10:35.186Z,76.79
2018-08-24T02:11:35.232Z,76.54
2018-08-24T02:12:35.117Z,77.25
2018-08-24T02:13:35.189Z,77.75
2018-08-24T02:14:35.221Z,77.52
2018-08-24T02:15:35.299Z,78.3
2018-08-24T02:16:35.244Z,77.86
2018-08-24T02:17:35.153Z,76.49
2018-08-24T02:18:35.099Z,76.6
2018-08-24T02:19:35.118Z,77.23
2018-08-24T02:20:35.143Z,77.29
2018-08-24T02:21:35.193Z,76.7
2018-08-24T02:22:35.467Z,76.28
2018-08-24T02:23:35.160Z,76.58
2018-08-24T02:24:35.226Z,77.47
2018-08-24T02:25:35.268Z,76.42
2018-08-24T02:26:35.243Z,76.58
2018-08-24T02:27:35.289Z,77.79
2018-08-24T02:28:35.148Z,77.57
2018-08-24T02:29:35.271Z,77.85
2018-08-24T02:30:35.206Z,77.79
2018-08-24T02:31:35.403Z,76.7
2018-08-24T02:32:35.180Z,76.7
2018-08-24T02:33:35.195Z,76.43
2018-08-24T02:34:35.234Z,76.36
2018-08-24T02:35:35.260Z,76.87
2018-08-24T02:36:35.272Z,76.49
2018-08-24T02:37:35.415Z,77.11
2018-08-24T02:38:35.275Z,76.92
2018-08-24T02:39:35.214Z,75.95
2018-08-24T02:40:35.223Z,76.31
2018-08-24T02:41:35.238Z,75.86
2018-08-24T02:42:35.345Z,75.91
2018-08-24T02:43:35.408Z,76.11
2018-08-24T02:44:35.293Z,76.69
2018-08-24T02:45:35.277Z,76.98
2018-08-24T02:46:35.191Z,76.84
2018-08-24T02:47:35.327Z,76.42
2018-08-24T02:48:35.172Z,76.67
2018-08-24T02:49:35.242Z,76.36
2018-08-24T02:50:35.359Z,76.24
2018-08-24T02:51:35.254Z,76.97
2018-08-24T02:52:35.215Z,77.23
2018-08-24T02:53:35.527Z,76.72
2018-08-24T02:54:35.205Z,76.37
2018-08-24T02:55:35.280Z,76.64
2018-08-24T02:56:35.237Z,76.3
2018-08-24T02:57:35.172Z,76.76
2018-08-24T02:58:35.182Z,76.69
2018-08-24T02:59:35.225Z,76.49
2018-08-24T03:00:35.281Z,77.08
2018-08-24T03:01:35.180Z,77.34
2018-08-24T03:02:35.475Z,76.77
2018-08-24T03:03:35.188Z,76.84
2018-08-24T03:04:35.173Z,76.99
2018-08-24T03:05:35.466Z,78.1
2018-08-24T03:06:35.224Z,78.04
2018-08-24T03:07:35.247Z,77.55
2018-08-24T03:08:35.201Z,78.51
2018-08-24T03:09:35.215Z,78.22
2018-08-24T03:10:35.326Z,78.92
2018-08-24T03:11:35.246Z,78.16
2018-08-24T03:12:35.188Z,77.32
2018-08-24T03:13:35.319Z,77.59
2018-08-24T03:14:35.262Z,77.63
2018-08-24T03:15:35.270Z,77.31
2018-08-24T03:16:35.203Z,78.54
2018-08-24T03:17:35.204Z,78.1
2018-08-24T03:18:35.194Z,78.54
2018-08-24T03:19:35.274Z,79.7
2018-08-24T03:20:35.294Z,79.39
2018-08-24T03:21:35.621Z,79.19
2018-08-24T03:22:35.216Z,79.37
2018-08-24T03:23:35.222Z,79.17
2018-08-24T03:24:35.251Z,81.05
2018-08-24T03:25:35.322Z,80.45
2018-08-24T03:26:35.250Z,80.77
2018-08-24T03:27:35.344Z,80.32
2018-08-24T03:28:35.218Z,79.45
2018-08-24T03:29:35.220Z,80.36
2018-08-24T03:30:35.245Z,79.6
2018-08-24T03:31:35.321Z,79.96
2018-08-24T03:32:35.345Z,80.46
2018-08-24T03:33:35.339Z,80.78
2018-08-24T03:34:35.499Z,80.33
2018-08-24T03:35:35.292Z,81.42
2018-08-24T03:36:35.320Z,81.3
2018-08-24T03:37:35.217Z,81.4
2018-08-24T03:38:35.249Z,80.42
2018-08-24T03:39:35.254Z,80.03
2018-08-24T03:40:35.288Z,80.5
2018-08-24T03:41:35.252Z,81.49
2018-08-24T03:42:35.224Z,81.55
2018-08-24T03:43:35.260Z,81.14
2018-08-24T03:44:35.276Z,80.71
2018-08-24T03:45:35.383Z,80.91
2018-08-24T03:46:35.361Z,81.11
2018-08-24T03:47:35.337Z,81.4
2018-08-24T03:48:35.356Z,80.11
2018-08-24T03:49:59.985Z,80.08
2018-08-24T03:50:35.335Z,79.54
2018-08-24T03:51:35.239Z,79.66
2018-08-24T03:52:35.289Z,80.02
2018-08-24T03:53:35.345Z,80.32
2018-08-24T03:54:41.380Z,80.71
2018-08-24T03:55:35.256Z,81.14
2018-08-24T03:56:35.323Z,80.45
2018-08-24T03:57:35.250Z,80.57
2018-08-24T03:58:38.583Z,80.45
2018-08-24T03:59:47.074Z,79.42
2018-08-24T04:00:35.292Z,80.07
2018-08-24T04:01:36.940Z,79.83
2018-08-24T04:02:35.382Z,79.17
2018-08-24T04:03:35.306Z,79.28
2018-08-24T04:04:35.243Z,79.52
2018-08-24T04:05:35.283Z,80.02
2018-08-24T04:06:35.370Z,79.59
2018-08-24T04:07:35.329Z,79.67
2018-08-24T04:08:36.765Z,79.29
2018-08-24T04:09:35.262Z,80.11
2018-08-24T04:10:35.385Z,79.28
2018-08-24T04:11:35.294Z,78.8
2018-08-24T04:12:35.324Z,79.46
2018-08-24T04:13:35.332Z,79.88
2018-08-24T04:14:35.310Z,79.6
2018-08-24T04:15:35.557Z,79.07
2018-08-24T04:16:35.304Z,79.02
2018-08-24T04:17:35.300Z,79.05
2018-08-24T04:18:35.255Z,79.08
2018-08-24T04:19:35.444Z,79.31
2018-08-24T04:20:35.267Z,80.02
2018-08-24T04:21:35.449Z,79.44
2018-08-24T04:22:35.584Z,79.5
2018-08-24T04:23:35.341Z,80.83
2018-08-24T04:24:35.456Z,80.58
2018-08-24T04:25:35.426Z,80.21
2018-08-24T04:26:35.962Z,80.65
2018-08-24T04:27:35.327Z,80.8
2018-08-24T04:28:35.487Z,81.31
2018-08-24T04:29:35.380Z,80.34
2018-08-24T04:30:35.355Z,81.54
2018-08-24T04:31:35.487Z,80.98
2018-08-24T04:32:35.349Z,80.46
2018-08-24T04:33:35.435Z,80.87
2018-08-24T04:34:36.626Z,81.62
2018-08-24T04:36:35.379Z,81.5
2018-08-24T04:37:35.340Z,81.55
2018-08-24T04:38:35.309Z,81.32
2018-08-24T04:39:35.476Z,81.31
2018-08-24T04:40:35.395Z,80.55
2018-08-24T04:41:35.660Z,82.05
2018-08-24T04:42:35.364Z,81.4
2018-08-24T04:43:35.313Z,81.14
2018-08-24T04:44:35.413Z,81.61
2018-08-24T04:45:35.495Z,82.48
2018-08-24T04:46:35.459Z,81.73
2018-08-24T04:47:35.360Z,82.23
2018-08-24T04:48:35.382Z,82.21
2018-08-24T04:49:35.929Z,81.77
2018-08-24T04:50:35.688Z,81.19
2018-08-24T04:51:37.386Z,81.71
2018-08-24T04:52:35.369Z,81.73
2018-08-24T04:53:35.315Z,81.15
2018-08-24T04:54:35.329Z,80.72
2018-08-24T04:55:35.517Z,80.52
2018-08-24T04:56:35.511Z,80.69
2018-08-24T04:57:35.486Z,80.89
2018-08-24T04:58:35.335Z,81.21
2018-08-24T04:59:35.403Z,80.95
2018-08-24T05:00:35.587Z,80.6
2018-08-24T05:01:35.391Z,81.09
2018-08-24T05:02:35.397Z,81.67
2018-08-24T05:03:35.482Z,81.35
2018-08-24T05:04:35.507Z,81.69
2018-08-24T05:05:36.103Z,81.66
2018-08-24T05:06:35.727Z,81.05
2018-08-24T05:07:35.462Z,80.69
2018-08-24T05:08:35.414Z,80.61
2018-08-24T05:09:35.452Z,81.75
2018-08-24T05:10:35.759Z,82.1
2018-08-24T05:11:35.585Z,82.07
2018-08-24T05:12:35.464Z,81.76
2018-08-24T05:13:35.607Z,82.19
2018-08-24T05:14:35.376Z,81.92
2018-08-24T05:15:35.512Z,82.55
2018-08-24T05:16:35.396Z,82.31
2018-08-24T05:17:35.368Z,82.3
2018-08-24T05:18:35.411Z,82.13
2018-08-24T05:19:35.403Z,82.27
2018-08-24T05:20:35.476Z,82.5
2018-08-24T05:21:35.380Z,83.54
2018-08-24T05:22:35.649Z,83.31
2018-08-24T05:23:35.406Z,83.37
2018-08-24T05:24:35.490Z,83.02
2018-08-24T05:25:35.993Z,82.76
2018-08-24T05:26:35.480Z,83.15
2018-08-24T05:27:35.341Z,83.32
2018-08-24T05:28:36.082Z,82.78
2018-08-24T05:29:35.388Z,83.57
2018-08-24T05:30:35.484Z,83.7
2018-08-24T05:31:35.459Z,82.94
2018-08-24T05:32:35.395Z,82.57
2018-08-24T05:33:36.272Z,81.88
2018-08-24T05:34:35.441Z,81.95
2018-08-24T05:35:35.531Z,81.61
2018-08-24T05:36:35.456Z,82.7
2018-08-24T05:37:35.382Z,82.35
2018-08-24T05:38:35.426Z,81.99
2018-08-24T05:39:35.416Z,82.05
2018-08-24T05:40:35.453Z,81.92
2018-08-24T05:41:35.494Z,82.96
2018-08-24T05:42:35.442Z,82.89
2018-08-24T05:43:35.371Z,82.91
2018-08-24T05:44:35.454Z,82.61
2018-08-24T05:45:35.433Z,81.93
2018-08-24T05:46:35.437Z,82.16
2018-08-24T05:47:35.515Z,81.99
2018-08-24T05:48:35.437Z,82
2018-08-24T05:49:35.830Z,81.72
2018-08-24T05:50:35.432Z,81.78
2018-08-24T05:51:36.132Z,82.36
2018-08-24T05:52:36.204Z,82.27
2018-08-24T05:53:35.380Z,82.04
2018-08-24T05:54:35.451Z,82.17
2018-08-24T05:55:35.976Z,82.27
2018-08-24T05:56:35.428Z,82.2
2018-08-24T05:57:36.308Z,81.89
2018-08-24T05:58:35.435Z,82.14
2018-08-24T05:59:35.558Z,81.86
2018-08-24T06:00:35.459Z,82.29
2018-08-24T06:01:36.245Z,82.51
2018-08-24T06:02:35.599Z,82.4
2018-08-24T06:03:35.457Z,82.02
2018-08-24T06:04:35.501Z,82.69
2018-08-24T06:05:35.465Z,82.59
2018-08-24T06:06:35.463Z,82.5
2018-08-24T06:07:35.844Z,82.33
2018-08-24T06:08:35.521Z,82.48
2018-08-24T06:09:35.471Z,81.96
2018-08-24T06:10:35.469Z,82.17
2018-08-24T06:11:35.634Z,82.39
2018-08-24T06:12:35.536Z,82.32
2018-08-24T06:13:35.500Z,81.91
2018-08-24T06:14:35.420Z,82.5
2018-08-24T06:15:35.501Z,82.9
2018-08-24T06:16:35.471Z,82.9
2018-08-24T06:17:35.536Z,82.91
2018-08-24T06:18:35.478Z,83.07
2018-08-24T06:19:35.442Z,82.56
2018-08-24T06:20:35.586Z,82.57
2018-08-24T06:21:35.604Z,82.39
2018-08-24T06:22:35.644Z,83.08
2018-08-24T06:23:35.574Z,82.76
2018-08-24T06:24:35.592Z,82.68
2018-08-24T06:25:35.610Z,82.67
2018-08-24T06:26:35.551Z,83.17
2018-08-24T06:27:35.933Z,82.87
2018-08-24T06:28:35.528Z,82.74
2018-08-24T06:29:35.498Z,83.15
2018-08-24T06:30:35.516Z,82.86
2018-08-24T06:31:36.237Z,82.73
2018-08-24T06:32:35.471Z,82.78
2018-08-24T06:33:35.915Z,82.47
2018-08-24T06:34:35.467Z,82.12
2018-08-24T06:35:35.572Z,82.09
2018-08-24T06:36:35.461Z,82.56
2018-08-24T06:37:35.479Z,82.17
2018-08-24T06:38:35.531Z,82.29
2018-08-24T06:39:35.469Z,82.18
2018-08-24T06:40:35.547Z,81.7
2018-08-24T06:41:35.528Z,81.65
2018-08-24T06:42:35.461Z,81.64
2018-08-24T06:43:35.699Z,81.55
2018-08-24T06:44:36.581Z,81.76
2018-08-24T06:45:35.540Z,81.94
2018-08-24T06:46:35.549Z,81.39
2018-08-24T06:47:35.791Z,82.05
2018-08-24T06:48:36.155Z,82.04
2018-08-24T06:49:35.600Z,81.71
2018-08-24T06:50:35.573Z,82.36
2018-08-24T06:51:35.461Z,81.57
2018-08-24T06:52:36.241Z,81.57
2018-08-24T06:53:35.700Z,82.09
2018-08-24T06:54:35.470Z,81.83
2018-08-24T06:55:35.539Z,81.16
2018-08-24T06:56:35.484Z,81.01
2018-08-24T06:57:35.494Z,81.55
2018-08-24T06:58:35.481Z,81.59
2018-08-24T06:59:35.562Z,81.64
2018-08-24T07:00:35.579Z,81.27
2018-08-24T07:01:35.510Z,81.52
2018-08-24T07:02:35.718Z,80.78
2018-08-24T07:03:35.541Z,80.78
2018-08-24T07:04:35.570Z,81.7
2018-08-24T07:05:35.871Z,81.93
2018-08-24T07:06:35.502Z,81.87
2018-08-24T07:07:35.466Z,81.46
2018-08-24T07:08:35.478Z,81.55
2018-08-24T07:09:35.695Z,81.69
2018-08-24T07:10:35.670Z,81.8
2018-08-24T07:11:35.574Z,82.54
2018-08-24T07:12:35.647Z,82.96
2018-08-24T07:13:35.664Z,83.22
2018-08-24T07:14:36.488Z,82.3
2018-08-24T07:15:35.526Z,82.44
2018-08-24T07:16:35.504Z,82.58
2018-08-24T07:17:35.606Z,81.95
2018-08-24T07:18:35.564Z,81.49
2018-08-24T07:19:35.641Z,81.61
2018-08-24T07:20:35.546Z,81.74
2018-08-24T07:21:36.775Z,80.78
2018-08-24T07:22:35.579Z,80.13
2018-08-24T07:23:35.573Z,79.6
2018-08-24T07:24:35.564Z,79.62
2018-08-24T07:25:35.608Z,80.03
2018-08-24T07:26:36.117Z,79.6
2018-08-24T07:27:35.490Z,78.38
2018-08-24T07:28:35.503Z,78.46
2018-08-24T07:29:35.886Z,77.76
2018-08-24T07:30:36.115Z,78.04
2018-08-24T07:31:35.599Z,77.17
2018-08-24T07:32:36.034Z,77.46
2018-08-24T07:33:35.636Z,78.56
2018-08-24T07:34:36.183Z,77.52
2018-08-24T07:35:35.749Z,76.82
2018-08-24T07:36:35.556Z,77.12
2018-08-24T07:37:35.583Z,77.75
2018-08-24T07:38:35.953Z,76.87
2018-08-24T07:39:35.610Z,75.79
2018-08-24T07:40:35.551Z,75.48
2018-08-24T07:41:35.749Z,75.64
2018-08-24T07:42:35.509Z,75.48
2018-08-24T07:43:35.768Z,75.93
2018-08-24T07:44:35.533Z,75.48
2018-08-24T07:45:35.584Z,75.19
2018-08-24T07:46:35.621Z,75.22
2018-08-24T07:47:35.736Z,74.75
2018-08-24T07:48:35.524Z,74.99
2018-08-24T07:49:35.534Z,74.56
2018-08-24T07:50:35.558Z,74.94
2018-08-24T07:51:35.651Z,74.22
2018-08-24T07:52:35.642Z,73.73
2018-08-24T07:53:35.634Z,73.82
2018-08-24T07:54:35.561Z,74.61
2018-08-24T07:55:35.758Z,74.68
2018-08-24T07:56:35.552Z,74.32
2018-08-24T07:57:35.565Z,74.33
2018-08-24T07:58:35.760Z,74.15
2018-08-24T07:59:35.560Z,74.43
2018-08-24T08:00:35.548Z,74.27
2018-08-24T08:01:35.612Z,74
2018-08-24T08:02:35.649Z,74.06
2018-08-24T08:03:35.931Z,74.34
2018-08-24T08:04:35.767Z,74.22
2018-08-24T08:05:35.549Z,74.65
2018-08-24T08:06:35.611Z,74.63
2018-08-24T08:07:35.650Z,74.65
2018-08-24T08:08:35.704Z,74.77
2018-08-24T08:09:35.593Z,74.79
2018-08-24T08:10:35.558Z,75.35
2018-08-24T08:11:35.564Z,74.77
2018-08-24T08:12:35.991Z,73.91
2018-08-24T08:13:35.567Z,73.72
2018-08-24T08:14:35.568Z,73.89
2018-08-24T08:15:35.735Z,74.1
2018-08-24T08:16:35.549Z,73.96
2018-08-24T08:17:35.611Z,74.21
2018-08-24T08:18:35.620Z,74.58
2018-08-24T08:19:35.670Z,74.33
2018-08-24T08:20:35.575Z,74.32
2018-08-24T08:21:35.548Z,73.92
2018-08-24T08:22:35.563Z,74.47
2018-08-24T08:23:35.597Z,74.23
2018-08-24T08:24:35.632Z,74.47
2018-08-24T08:25:35.566Z,73.88
2018-08-24T08:26:35.566Z,74.04
2018-08-24T08:27:35.580Z,73.93
2018-08-24T08:28:35.642Z,73.72
2018-08-24T08:29:35.692Z,73.63
2018-08-24T08:30:36.133Z,73.21
2018-08-24T08:31:35.620Z,73.38
2018-08-24T08:32:35.573Z,73.3
2018-08-24T08:33:35.695Z,73.17
2018-08-24T08:34:35.866Z,72.9
2018-08-24T08:35:35.735Z,72.68
2018-08-24T08:36:35.598Z,72.24
2018-08-24T08:37:35.968Z,72.39
2018-08-24T08:38:35.968Z,72.06
2018-08-24T08:39:35.583Z,71.55
2018-08-24T08:40:35.731Z,70.98
2018-08-24T08:41:35.750Z,70.7
2018-08-24T08:42:35.722Z,70.92
2018-08-24T08:43:35.627Z,70.63
2018-08-24T08:44:35.691Z,70.78
2018-08-24T08:45:35.622Z,70.91
2018-08-24T08:46:35.752Z,71.39
2018-08-24T08:47:35.690Z,70.91
2018-08-24T08:48:35.650Z,71.11
2018-08-24T08:49:35.827Z,71.28
2018-08-24T08:50:35.947Z,71.41
2018-08-24T08:51:35.640Z,71.6
2018-08-24T08:52:35.671Z,71.49
2018-08-24T08:53:35.716Z,71
2018-08-24T08:54:35.709Z,71.36
2018-08-24T08:55:35.670Z,71.27
2018-08-24T08:56:35.634Z,70.69
2018-08-24T08:57:35.790Z,71.19
2018-08-24T08:58:35.990Z,71.23
2018-08-24T08:59:35.605Z,70.76
2018-08-24T09:00:35.691Z,70.48
2018-08-24T09:01:35.909Z,69.8
2018-08-24T09:02:36.028Z,70.17
2018-08-24T09:03:35.697Z,70.07
2018-08-24T09:04:36.437Z,70.67
2018-08-24T09:05:35.738Z,71.15
2018-08-24T09:06:35.721Z,70.22
2018-08-24T09:07:35.853Z,69.17
2018-08-24T09:08:35.736Z,69.11
2018-08-24T09:09:35.815Z,68.83
2018-08-24T09:10:35.812Z,68.95
2018-08-24T09:11:35.981Z,69.17
2018-08-24T09:12:35.688Z,69.28
2018-08-24T09:13:35.938Z,69.04
2018-08-24T09:14:35.916Z,69.39
2018-08-24T09:15:35.789Z,69.39
2018-08-24T09:16:35.665Z,69.08
2018-08-24T09:17:35.658Z,69.51
2018-08-24T09:18:35.736Z,69.58
2018-08-24T09:19:35.683Z,70.38
2018-08-24T09:20:35.708Z,70.62
2018-08-24T09:21:35.669Z,71.68
2018-08-24T09:22:36.161Z,72.18
2018-08-24T09:23:35.722Z,69.18
2018-08-24T09:24:35.721Z,70.45
2018-08-24T09:25:36.023Z,72.27
2018-08-24T09:26:35.689Z,71.14
2018-08-24T09:27:35.774Z,73.47
2018-08-24T09:28:35.898Z,74.51
2018-08-24T09:29:35.655Z,74.23
2018-08-24T09:30:35.658Z,75.65
2018-08-24T09:31:35.743Z,74.66
2018-08-24T09:32:35.789Z,75.75
2018-08-24T09:33:35.640Z,76.44
2018-08-24T09:34:35.753Z,77.85
2018-08-24T09:35:35.671Z,78.04
2018-08-24T09:36:35.723Z,80.67
2018-08-24T09:37:35.676Z,79.93
2018-08-24T09:38:35.768Z,82.19
2018-08-24T09:39:35.680Z,81.4
2018-08-24T09:40:35.780Z,79.94
2018-08-24T09:41:35.681Z,80.51
2018-08-24T09:42:35.994Z,82.66
2018-08-24T09:43:35.668Z,81.76
2018-08-24T09:44:35.816Z,82.67
2018-08-24T09:45:35.760Z,83.8
2018-08-24T09:46:35.796Z,83.09
2018-08-24T09:47:35.750Z,84.81
2018-08-24T09:48:36.347Z,84.49
2018-08-24T09:49:35.727Z,84.12
2018-08-24T09:50:35.689Z,86.68
2018-08-24T09:51:35.786Z,85.75
2018-08-24T09:52:35.988Z,86.51
2018-08-24T09:53:36.079Z,85.73
2018-08-24T09:54:35.904Z,86.77
2018-08-24T09:55:35.720Z,87.2
2018-08-24T09:56:35.750Z,85.91
2018-08-24T09:57:35.736Z,87.26
2018-08-24T09:58:35.710Z,88.38
2018-08-24T09:59:35.710Z,88.31
2018-08-24T10:00:35.774Z,89.58
2018-08-24T10:01:36.154Z,87.93
2018-08-24T10:02:36.060Z,89.08
2018-08-24T10:03:35.782Z,87.26
2018-08-24T10:04:35.702Z,86.37
2018-08-24T10:05:35.955Z,86.51
2018-08-24T10:06:35.797Z,85.16
2018-08-24T10:07:35.913Z,87.29
2018-08-24T10:08:36.059Z,85.34
2018-08-24T10:09:35.888Z,84.3
2018-08-24T10:10:35.769Z,84.33
2018-08-24T10:11:35.946Z,87.09
2018-08-24T10:12:35.953Z,85.64
2018-08-24T10:13:35.726Z,85.55
2018-08-24T10:14:36.133Z,86.95
2018-08-24T10:16:35.934Z,84.27
2018-08-24T10:17:36.044Z,84.69
2018-08-24T10:18:35.837Z,83.18
2018-08-24T10:19:35.942Z,85.67
2018-08-24T10:20:36.881Z,85.81
2018-08-24T10:21:35.957Z,86.75
2018-08-24T10:22:35.963Z,84.67
2018-08-24T10:23:35.747Z,84.51
2018-08-24T10:24:35.873Z,85.16
2018-08-24T10:25:35.883Z,85.3
2018-08-24T10:26:35.988Z,84.57
2018-08-24T10:27:36.939Z,83.01
2018-08-24T10:28:35.754Z,82.87
2018-08-24T10:29:36.143Z,82.08
2018-08-24T10:30:35.915Z,82.74
2018-08-24T10:31:35.919Z,82.15
2018-08-24T10:32:35.743Z,82.47
2018-08-24T10:33:36.039Z,82.78
2018-08-24T10:34:35.873Z,83.99
2018-08-24T10:35:35.741Z,83.62
2018-08-24T10:36:35.961Z,83.21
2018-08-24T10:37:36.173Z,82.92
2018-08-24T10:38:36.070Z,84.42
2018-08-24T10:39:36.082Z,83.04
2018-08-24T10:40:35.885Z,86.19
2018-08-24T10:41:36.091Z,84.03
2018-08-24T10:42:36.515Z,84.91
2018-08-24T10:43:35.742Z,85.4
2018-08-24T10:44:36.121Z,84.27
2018-08-24T10:45:36.224Z,84.69
2018-08-24T10:46:35.920Z,81.57
2018-08-24T10:47:36.024Z,84.03
2018-08-24T10:48:36.141Z,82.84
2018-08-24T10:49:35.843Z,81.92
2018-08-24T10:50:35.953Z,81.77
2018-08-24T10:51:36.035Z,81.5
2018-08-24T10:52:35.972Z,83.32
2018-08-24T10:53:35.971Z,83.68
2018-08-24T10:54:35.883Z,81.65
2018-08-24T10:55:35.914Z,81.85
2018-08-24T10:56:35.911Z,80.89
2018-08-24T10:57:36.108Z,80.69
2018-08-24T10:58:35.910Z,80.5
2018-08-24T10:59:35.845Z,80.38
2018-08-24T11:00:35.920Z,79.64
2018-08-24T11:01:35.841Z,79.59
2018-08-24T11:02:35.776Z,78.14
2018-08-24T11:03:35.940Z,78.28
2018-08-24T11:04:35.848Z,78.78
2018-08-24T11:05:35.852Z,78.45
2018-08-24T11:06:35.962Z,79.14
2018-08-24T11:07:36.178Z,80.11
2018-08-24T11:08:35.860Z,79.42
2018-08-24T11:09:35.873Z,79.22
2018-08-24T11:10:36.090Z,78.43
2018-08-24T11:11:36.011Z,79.21
2018-08-24T11:12:35.893Z,78.75
2018-08-24T11:13:35.901Z,77.99
2018-08-24T11:14:35.814Z,77.93
2018-08-24T11:15:35.924Z,78.42
2018-08-24T11:16:37.073Z,78.07
2018-08-24T11:17:36.157Z,75.56
2018-08-24T11:18:35.936Z,75.53
2018-08-24T11:19:35.836Z,76.39
2018-08-24T11:20:35.899Z,76.63
2018-08-24T11:21:35.860Z,76.62
2018-08-24T11:22:36.281Z,76.42
2018-08-24T11:23:35.792Z,77.46
2018-08-24T11:24:37.205Z,77.44
2018-08-24T11:25:36.188Z,76.7
2018-08-24T11:26:35.874Z,76.92
2018-08-24T11:27:36.020Z,76.71
2018-08-24T11:28:36.220Z,76.62
2018-08-24T11:29:35.819Z,76.65
2018-08-24T11:30:36.034Z,76.58
2018-08-24T11:31:36.034Z,76.73
2018-08-24T11:32:36.152Z,77.36
2018-08-24T11:33:35.938Z,76.43
2018-08-24T11:34:35.947Z,76.14
2018-08-24T11:35:35.919Z,77.04
2018-08-24T11:36:36.987Z,76.7
2018-08-24T11:37:35.806Z,76.77
2018-08-24T11:38:35.937Z,77.14
2018-08-24T11:39:36.084Z,76.83
2018-08-24T11:40:35.992Z,76.27
2018-08-24T11:41:35.812Z,76.46
2018-08-24T11:42:36.413Z,76.59
2018-08-24T11:43:36.010Z,76.25
2018-08-24T11:44:35.921Z,76.92
2018-08-24T11:45:36.435Z,76.3
2018-08-24T11:46:35.967Z,75.98
2018-08-24T11:47:36.352Z,76.61
2018-08-24T11:48:36.053Z,76.64
2018-08-24T11:49:35.981Z,76.81
2018-08-24T11:50:36.162Z,76.86
2018-08-24T11:51:36.169Z,76.38
2018-08-24T11:52:35.891Z,76
2018-08-24T11:53:36.013Z,76.2
2018-08-24T11:54:36.201Z,75.76
2018-08-24T11:55:35.831Z,75.71
2018-08-24T11:56:36.052Z,76.17
2018-08-24T11:57:36.105Z,76.52
2018-08-24T11:58:35.937Z,76.34
2018-08-24T11:59:35.909Z,76.47
2018-08-24T12:00:36.027Z,76.37
2018-08-24T12:01:36.137Z,76.94
2018-08-24T12:02:35.941Z,76.68
2018-08-24T12:03:36.365Z,76.74
2018-08-24T12:04:35.945Z,76.98
2018-08-24T12:05:36.051Z,76.72
2018-08-24T12:06:35.965Z,76.43
2018-08-24T12:07:36.024Z,75.29
2018-08-24T12:08:35.919Z,75.19
2018-08-24T12:09:37.115Z,75.62
2018-08-24T12:10:37.018Z,74.9
2018-08-24T12:11:35.947Z,74.91
2018-08-24T12:12:36.040Z,74.24
2018-08-24T12:13:36.315Z,74.29
2018-08-24T12:14:36.116Z,75.22
2018-08-24T12:15:36.158Z,75.65
2018-08-24T12:16:35.923Z,75.2
2018-08-24T12:17:35.872Z,73.91
2018-08-24T12:18:36.248Z,74.12
2018-08-24T12:19:35.900Z,73.01
2018-08-24T12:20:35.948Z,73.38
2018-08-24T12:21:36.000Z,73.61
2018-08-24T12:22:35.946Z,72.84
2018-08-24T12:23:35.956Z,72.46
2018-08-24T12:24:36.106Z,72.54
2018-08-24T12:25:36.298Z,72.6
2018-08-24T12:26:36.444Z,72.56
2018-08-24T12:27:36.116Z,72.37
2018-08-24T12:28:36.125Z,72.47
2018-08-24T12:29:35.962Z,71.73
2018-08-24T12:30:36.030Z,71.9
2018-08-24T12:31:35.896Z,71.55
2018-08-24T12:32:35.886Z,71.8
2018-08-24T12:33:35.948Z,71.5
2018-08-24T12:34:36.118Z,71
2018-08-24T12:35:35.922Z,72.17
2018-08-24T12:36:36.185Z,72.22
2018-08-24T12:37:35.950Z,72.79
2018-08-24T12:38:36.045Z,72.41
2018-08-24T12:39:35.982Z,71.87
2018-08-24T12:40:36.224Z,71.38
2018-08-24T12:41:36.084Z,71.26
2018-08-24T12:42:37.145Z,71.57
2018-08-24T12:43:35.978Z,72.42
2018-08-24T12:44:35.893Z,71.77
2018-08-24T12:45:36.146Z,71.71
2018-08-24T12:46:36.033Z,71.05
2018-08-24T12:47:35.999Z,71.37
2018-08-24T12:48:36.565Z,71.51
2018-08-24T12:49:36.040Z,71.12
2018-08-24T12:50:35.919Z,71.01
2018-08-24T12:51:36.175Z,70.32
2018-08-24T12:52:36.068Z,69.98
2018-08-24T12:53:35.964Z,70
2018-08-24T12:54:38.259Z,69.99
2018-08-24T12:55:35.925Z,70.07
2018-08-24T12:56:35.894Z,69.13
2018-08-24T12:57:36.110Z,68.5